Time;durP1;ratioP1;P1;durP2;ratioP2;P2;SDS_P1;SDS_P2;PMS_P1;PMS_P2;Temp;Humidity;BMP_temperature;BMP_pressure;BME280_temperature;BME280_humidity;BME280_pressure;Samples;Min_cycle;Max_cycle;Signal;HPM_P1;HPM_P2
2023/04/03 05:00:43;;;;;;;5.85;5.35;;;;;;;;;;5050221;23;20322;-65
2023/04/03 05:03:10;;;;;;;6.70;6.00;;;;;;;;;;4976455;28;20265;-66
2023/04/03 05:05:37;;;;;;;5.68;5.07;;;;;;;;;;4975059;28;20203;-67
2023/04/03 05:08:04;;;;;;;5.43;5.03;;;;;;;;;;4974851;28;20199;-65
2023/04/03 05:10:32;;;;;;;6.65;6.05;;;;;;;;;;4974732;28;20223;-65
2023/04/03 05:12:59;;;;;;;6.47;5.32;;;;;;;;;;4974985;28;20712;-64
2023/04/03 05:15:26;;;;;;;5.72;5.32;;;;;;;;;;4974645;28;20210;-64
2023/04/03 05:17:54;;;;;;;6.03;4.45;;;;;;;;;;4974848;28;20207;-63
2023/04/03 05:20:21;;;;;;;4.60;4.20;;;;;;;;;;4974596;28;20226;-63
2023/04/03 05:22:48;;;;;;;4.53;4.18;;;;;;;;;;4974637;28;20218;-63
2023/04/03 05:25:15;;;;;;;5.38;4.88;;;;;;;;;;4974260;28;20662;-63
2023/04/03 05:27:42;;;;;;;4.05;3.75;;;;;;;;;;4974719;28;20206;-63
2023/04/03 05:30:10;;;;;;;4.40;4.10;;;;;;;;;;4976757;28;20231;-63
2023/04/03 05:32:37;;;;;;;4.70;4.45;;;;;;;;;;4975922;28;20207;-63
2023/04/03 05:35:07;;;;;;;3.95;3.75;;;;;;;;;;4981135;28;20204;-65
2023/04/03 05:37:34;;;;;;;4.05;3.75;;;;;;;;;;4983258;28;20219;-65
2023/04/03 05:40:01;;;;;;;4.43;4.03;;;;;;;;;;4975988;28;20223;-64
2023/04/03 05:42:28;;;;;;;4.40;4.10;;;;;;;;;;4974579;28;20203;-64
2023/04/03 05:44:55;;;;;;;3.75;3.55;;;;;;;;;;4976029;28;20655;-64
2023/04/03 05:47:23;;;;;;;4.00;3.35;;;;;;;;;;4979726;28;20207;-64
2023/04/03 05:49:50;;;;;;;3.70;3.40;;;;;;;;;;4979286;28;20224;-64
2023/04/03 05:52:22;;;;;;;3.53;3.20;;;;;;;;;;4978972;28;20207;-64
2023/04/03 05:54:50;;;;;;;3.25;3.05;;;;;;;;;;4976799;28;20196;-64
2023/04/03 05:57:17;;;;;;;3.95;3.65;;;;;;;;;;4975926;28;20317;-64
2023/04/03 05:59:45;;;;;;;3.28;3.10;;;;;;;;;;4979473;28;20234;-64
2023/04/03 06:02:13;;;;;;;3.35;3.17;;;;;;;;;;4978133;28;20298;-64
2023/04/03 06:04:40;;;;;;;3.35;3.10;;;;;;;;;;4979209;28;20573;-64
2023/04/03 06:07:08;;;;;;;3.78;3.53;;;;;;;;;;4978952;28;20207;-64
2023/04/03 06:09:37;;;;;;;4.03;3.83;;;;;;;;;;4979097;28;20231;-64
2023/04/03 06:12:04;;;;;;;4.75;4.45;;;;;;;;;;4980704;28;20693;-64
2023/04/03 06:14:35;;;;;;;4.40;4.10;;;;;;;;;;4981789;28;20729;-64
2023/04/03 06:17:02;;;;;;;5.22;4.20;;;;;;;;;;4981768;28;20332;-66
2023/04/03 06:19:30;;;;;;;4.25;3.97;;;;;;;;;;4982177;28;20223;-66
2023/04/03 06:21:57;;;;;;;4.57;4.28;;;;;;;;;;4982386;28;20258;-66
2023/04/03 06:24:26;;;;;;;4.55;4.20;;;;;;;;;;4982095;28;20238;-66
2023/04/03 06:26:54;;;;;;;4.40;4.10;;;;;;;;;;4982086;28;20203;-66
2023/04/03 06:29:22;;;;;;;3.05;2.95;;;;;;;;;;4982148;28;20229;-66
2023/04/03 06:31:50;;;;;;;4.13;3.83;;;;;;;;;;4981795;28;20211;-67
2023/04/03 06:34:17;;;;;;;4.43;4.13;;;;;;;;;;4982295;28;20200;-67
2023/04/03 06:36:45;;;;;;;4.18;3.88;;;;;;;;;;4981945;28;20649;-67
2023/04/03 06:39:14;;;;;;;7.00;4.57;;;;;;;;;;4978571;28;20626;-66
2023/04/03 06:41:41;;;;;;;5.18;4.70;;;;;;;;;;4977270;28;20203;-67
2023/04/03 06:44:10;;;;;;;4.80;4.40;;;;;;;;;;4977215;28;20211;-67
2023/04/03 06:46:38;;;;;;;6.50;4.78;;;;;;;;;;4977395;28;20210;-67
2023/04/03 06:49:07;;;;;;;5.13;4.30;;;;;;;;;;4977375;28;20227;-67
2023/04/03 06:51:34;;;;;;;7.18;4.82;;;;;;;;;;4977304;28;20223;-67
2023/04/03 06:54:01;;;;;;;4.45;4.05;;;;;;;;;;4976751;28;20207;-67
2023/04/03 06:56:29;;;;;;;5.20;4.78;;;;;;;;;;4976936;28;20226;-67
2023/04/03 06:58:57;;;;;;;4.53;4.22;;;;;;;;;;4976928;28;20224;-67
2023/04/03 07:01:27;;;;;;;4.80;4.22;;;;;;;;;;4976789;28;20211;-67
2023/04/03 07:03:54;;;;;;;3.92;3.63;;;;;;;;;;4976977;28;20190;-67
2023/04/03 07:06:21;;;;;;;4.15;3.80;;;;;;;;;;4976850;28;20203;-67
2023/04/03 07:08:49;;;;;;;4.78;3.50;;;;;;;;;;4976440;28;20637;-67
2023/04/03 07:11:16;;;;;;;3.55;3.35;;;;;;;;;;4976795;28;20239;-66
2023/04/03 07:13:43;;;;;;;3.63;3.42;;;;;;;;;;4976741;28;20207;-67
2023/04/03 07:16:11;;;;;;;3.30;3.10;;;;;;;;;;4976733;28;20215;-67
2023/04/03 07:18:39;;;;;;;3.53;3.33;;;;;;;;;;4976561;28;20206;-67
2023/04/03 07:21:07;;;;;;;2.90;2.80;;;;;;;;;;4976657;28;20207;-67
2023/04/03 07:23:34;;;;;;;3.17;2.97;;;;;;;;;;4975337;28;20250;-67
2023/04/03 07:26:01;;;;;;;3.17;2.97;;;;;;;;;;4976657;28;20242;-67
2023/04/03 07:28:29;;;;;;;2.95;2.75;;;;;;;;;;4976552;28;20203;-67
2023/04/03 07:31:03;;;;;;;3.28;2.50;;;;;;;;;;4976564;28;20203;-67
2023/04/03 07:33:30;;;;;;;2.72;2.63;;;;;;;;;;4976764;28;20191;-67
2023/04/03 07:36:00;;;;;;;2.70;2.60;;;;;;;;;;4976679;28;20266;-67
2023/04/03 07:38:27;;;;;;;3.25;2.72;;;;;;;;;;4976413;28;20254;-67
2023/04/03 07:40:54;;;;;;;2.60;2.45;;;;;;;;;;4976332;28;20187;-67
2023/04/03 07:43:22;;;;;;;2.35;2.20;;;;;;;;;;4976217;28;20211;-67
2023/04/03 07:45:50;;;;;;;2.85;2.75;;;;;;;;;;4975862;28;20686;-67
2023/04/03 07:48:18;;;;;;;2.42;2.30;;;;;;;;;;4975779;28;20710;-67
2023/04/03 07:50:45;;;;;;;4.88;3.60;;;;;;;;;;4975977;28;20318;-67
2023/04/03 07:53:13;;;;;;;3.40;3.20;;;;;;;;;;4976119;28;20200;-67
2023/04/03 07:55:43;;;;;;;7.65;4.88;;;;;;;;;;4975853;28;20258;-67
2023/04/03 07:58:12;;;;;;;2.30;2.20;;;;;;;;;;4975878;28;20301;-66
2023/04/03 08:00:39;;;;;;;3.95;3.53;;;;;;;;;;4975939;28;20227;-66
2023/04/03 08:03:06;;;;;;;5.45;3.70;;;;;;;;;;4975660;28;20211;-67
2023/04/03 08:05:37;;;;;;;7.68;4.18;;;;;;;;;;4975624;28;20671;-67
2023/04/03 08:08:04;;;;;;;5.28;4.78;;;;;;;;;;4976235;28;20187;-67
2023/04/03 08:10:33;;;;;;;4.68;4.22;;;;;;;;;;4975843;28;20286;-67
2023/04/03 08:13:00;;;;;;;3.55;3.33;;;;;;;;;;4975736;28;20266;-67
2023/04/03 08:15:27;;;;;;;2.35;2.20;;;;;;;;;;4975856;28;20227;-67
2023/04/03 08:17:54;;;;;;;1.98;1.88;;;;;;;;;;4975206;28;20615;-67
2023/04/03 08:20:21;;;;;;;2.28;2.17;;;;;;;;;;4976437;28;20219;-67
2023/04/03 08:22:48;;;;;;;3.10;2.90;;;;;;;;;;4975501;28;20187;-65
2023/04/03 08:25:17;;;;;;;2.83;2.53;;;;;;;;;;4975451;28;20211;-65
2023/04/03 08:27:45;;;;;;;2.38;2.22;;;;;;;;;;4975502;28;20286;-65
2023/04/03 08:30:13;;;;;;;2.63;2.42;;;;;;;;;;4975172;28;20247;-65
2023/04/03 08:32:41;;;;;;;2.65;2.38;;;;;;;;;;4975001;28;20694;-65
2023/04/03 08:35:09;;;;;;;2.40;2.30;;;;;;;;;;4974940;28;20214;-65
2023/04/03 08:37:37;;;;;;;2.88;2.78;;;;;;;;;;4975126;28;20230;-65
2023/04/03 08:40:04;;;;;;;2.63;2.50;;;;;;;;;;4975292;28;20257;-65
2023/04/03 08:42:37;;;;;;;4.55;3.70;;;;;;;;;;4975323;28;20290;-65
2023/04/03 08:45:11;;;;;;;3.20;2.90;;;;;;;;;;4975225;28;20188;-65
2023/04/03 08:47:40;;;;;;;2.97;2.78;;;;;;;;;;4975169;28;20267;-65
2023/04/03 08:50:08;;;;;;;2.70;2.50;;;;;;;;;;4974752;28;20740;-65
2023/04/03 08:52:37;;;;;;;3.15;2.92;;;;;;;;;;4975010;28;20218;-65
2023/04/03 08:55:06;;;;;;;2.72;2.53;;;;;;;;;;4975367;28;20203;-65
2023/04/03 08:57:35;;;;;;;3.08;2.70;;;;;;;;;;4974928;28;20219;-65
2023/04/03 09:00:04;;;;;;;3.53;2.97;;;;;;;;;;4974834;28;20230;-65
2023/04/03 09:02:35;;;;;;;2.53;2.42;;;;;;;;;;4974586;28;20303;-65
2023/04/03 09:05:03;;;;;;;2.70;2.50;;;;;;;;;;4974862;28;20196;-65
2023/04/03 09:07:34;;;;;;;2.60;2.42;;;;;;;;;;4974820;28;20278;-65
2023/04/03 09:10:02;;;;;;;2.30;2.20;;;;;;;;;;4974385;28;20639;-65
2023/04/03 09:12:33;;;;;;;2.67;2.58;;;;;;;;;;4974812;28;20228;-65
2023/04/03 09:15:05;;;;;;;2.75;2.53;;;;;;;;;;4974878;28;20183;-65
2023/04/03 09:17:38;;;;;;;2.53;2.33;;;;;;;;;;4974767;28;20207;-65
2023/04/03 09:20:09;;;;;;;3.22;3.03;;;;;;;;;;4974753;28;20227;-65
2023/04/03 09:22:39;;;;;;;2.72;2.63;;;;;;;;;;4974760;28;20247;-65
2023/04/03 09:25:12;;;;;;;2.40;2.30;;;;;;;;;;4974977;28;20203;-64
2023/04/03 09:27:39;;;;;;;2.28;2.17;;;;;;;;;;4974737;28;20180;-65
2023/04/03 09:30:07;;;;;;;2.40;2.30;;;;;;;;;;4974602;28;20233;-65
2023/04/03 09:32:36;;;;;;;2.50;2.30;;;;;;;;;;4974574;28;20235;-65
2023/04/03 09:35:08;;;;;;;2.03;2.03;;;;;;;;;;4974624;28;20211;-65
2023/04/03 09:37:37;;;;;;;2.40;2.30;;;;;;;;;;4974476;28;20215;-65
2023/04/03 09:40:05;;;;;;;6.28;2.72;;;;;;;;;;4974546;28;20298;-64
2023/04/03 09:42:32;;;;;;;4.93;2.63;;;;;;;;;;4974304;28;20663;-65
2023/04/03 09:45:00;;;;;;;2.65;2.45;;;;;;;;;;4974943;28;20203;-65
2023/04/03 09:47:29;;;;;;;2.67;2.53;;;;;;;;;;4977998;28;20235;-65
2023/04/03 09:50:10;;;;;;;3.53;3.30;;;;;;;;;;4978263;28;20223;-65
2023/04/03 09:52:37;;;;;;;2.90;2.70;;;;;;;;;;4978453;28;20246;-65
2023/04/03 09:55:08;;;;;;;2.85;2.65;;;;;;;;;;4978256;28;20236;-64
2023/04/03 09:57:35;;;;;;;3.10;2.90;;;;;;;;;;4978086;28;20203;-64
2023/04/03 10:00:04;;;;;;;3.70;2.38;;;;;;;;;;4978142;28;20263;-64
2023/04/03 10:02:36;;;;;;;2.90;2.67;;;;;;;;;;4977751;28;20293;-64
2023/04/03 10:05:03;;;;;;;2.53;2.38;;;;;;;;;;4977975;28;20210;-65
2023/04/03 10:07:33;;;;;;;2.53;2.33;;;;;;;;;;4978242;28;20215;-65
2023/04/03 10:10:01;;;;;;;2.88;2.67;;;;;;;;;;4977631;28;20223;-65
2023/04/03 10:12:29;;;;;;;2.72;2.53;;;;;;;;;;4977968;28;20290;-66
2023/04/03 10:14:56;;;;;;;3.45;2.50;;;;;;;;;;4977900;28;20211;-64
2023/04/03 10:17:27;;;;;;;3.00;2.90;;;;;;;;;;4977593;28;20717;-64
2023/04/03 10:19:56;;;;;;;4.32;3.50;;;;;;;;;;4977381;28;20714;-64
2023/04/03 10:22:27;;;;;;;3.75;3.45;;;;;;;;;;4977645;28;20245;-65
2023/04/03 10:25:00;;;;;;;3.00;2.80;;;;;;;;;;4977810;28;20559;-64
2023/04/03 10:27:32;;;;;;;3.33;3.03;;;;;;;;;;4977856;28;20212;-65
2023/04/03 10:30:01;;;;;;;3.33;3.13;;;;;;;;;;4977562;28;20220;-65
2023/04/03 10:32:39;;;;;;;2.92;2.60;;;;;;;;;;4978176;28;20230;-64
2023/04/03 10:35:09;;;;;;;2.90;2.70;;;;;;;;;;4977707;28;20726;-64
2023/04/03 10:37:40;;;;;;;2.92;2.67;;;;;;;;;;4977675;28;20214;-64
2023/04/03 10:40:17;;;;;;;3.13;2.92;;;;;;;;;;4977600;28;20274;-64
2023/04/03 10:42:48;;;;;;;6.30;3.28;;;;;;;;;;4977526;28;20246;-65
2023/04/03 10:45:22;;;;;;;2.78;2.67;;;;;;;;;;4977307;28;20223;-65
2023/04/03 10:47:55;;;;;;;3.15;2.95;;;;;;;;;;4977514;28;20187;-66
2023/04/03 10:50:30;;;;;;;2.55;2.35;;;;;;;;;;4977415;28;20255;-67
2023/04/03 10:53:02;;;;;;;4.82;2.78;;;;;;;;;;4977255;28;20639;-67
2023/04/03 10:55:35;;;;;;;3.10;2.90;;;;;;;;;;4977612;28;20203;-67
2023/04/03 10:58:03;;;;;;;2.88;2.67;;;;;;;;;;4977091;28;20211;-67
2023/04/03 11:00:35;;;;;;;2.78;2.58;;;;;;;;;;4977198;28;20223;-67
2023/04/03 11:03:05;;;;;;;3.13;2.83;;;;;;;;;;4977008;28;20218;-67
2023/04/03 11:05:36;;;;;;;3.15;2.85;;;;;;;;;;4977267;28;20250;-67
2023/04/03 11:08:04;;;;;;;2.28;2.17;;;;;;;;;;4977084;28;20194;-67
2023/04/03 11:10:37;;;;;;;2.65;2.55;;;;;;;;;;4976727;28;20255;-67
2023/04/03 11:13:10;;;;;;;2.70;2.60;;;;;;;;;;4999078;23;20274;-66
2023/04/03 11:15:37;;;;;;;2.65;2.45;;;;;;;;;;4976799;28;20191;-66
2023/04/03 11:18:05;;;;;;;2.33;2.22;;;;;;;;;;4976536;28;20230;-66
2023/04/03 11:20:34;;;;;;;2.72;2.53;;;;;;;;;;4976777;28;20278;-66
2023/04/03 11:23:03;;;;;;;2.10;1.98;;;;;;;;;;4976627;28;20585;-67
2023/04/03 11:25:32;;;;;;;2.28;2.17;;;;;;;;;;4976523;28;20287;-67
2023/04/03 11:28:01;;;;;;;2.40;2.20;;;;;;;;;;4976549;28;20203;-66
2023/04/03 11:30:34;;;;;;;3.22;2.10;;;;;;;;;;4976543;28;20254;-67
2023/04/03 11:33:07;;;;;;;2.63;2.47;;;;;;;;;;4976663;28;20229;-67
2023/04/03 11:35:34;;;;;;;2.30;2.13;;;;;;;;;;4976812;28;20219;-67
2023/04/03 11:38:03;;;;;;;3.10;2.80;;;;;;;;;;4976215;28;20223;-67
2023/04/03 11:40:32;;;;;;;3.05;2.53;;;;;;;;;;4976236;28;20284;-67
2023/04/03 11:43:05;;;;;;;2.35;2.15;;;;;;;;;;4976090;28;20298;-67
2023/04/03 11:45:50;;;;;;;2.30;2.20;;;;;;;;;;4976201;28;20192;-67
2023/04/03 11:48:36;;;;;;;2.10;2.00;;;;;;;;;;4975744;28;20631;-67
2023/04/03 11:51:04;;;;;;;2.03;1.70;;;;;;;;;;4975694;28;20210;-67
2023/04/03 11:53:35;;;;;;;2.30;2.15;;;;;;;;;;4975954;28;20278;-68
2023/04/03 11:56:04;;;;;;;2.25;2.15;;;;;;;;;;4976139;28;20226;-67
2023/04/03 11:58:32;;;;;;;1.67;1.67;;;;;;;;;;4975768;28;20594;-66
2023/04/03 12:01:02;;;;;;;2.00;1.90;;;;;;;;;;4975837;28;20207;-66
2023/04/03 12:03:47;;;;;;;1.83;1.83;;;;;;;;;;4975774;28;20223;-67
2023/04/03 12:06:37;;;;;;;2.53;2.05;;;;;;;;;;4975738;28;20194;-66
2023/04/03 12:09:23;;;;;;;2.60;1.98;;;;;;;;;;4974470;28;20203;-67
2023/04/03 12:11:50;;;;;;;2.00;1.90;;;;;;;;;;4975522;28;20192;-66
2023/04/03 12:14:18;;;;;;;2.53;2.42;;;;;;;;;;4975702;28;20183;-66
2023/04/03 12:16:48;;;;;;;2.45;2.30;;;;;;;;;;4975639;28;20208;-67
2023/04/03 12:19:40;;;;;;;1.80;1.70;;;;;;;;;;4975485;28;20223;-66
2023/04/03 12:22:20;;;;;;;2.22;2.05;;;;;;;;;;4981159;28;20231;-67
2023/04/03 12:24:49;;;;;;;3.20;2.10;;;;;;;;;;4975397;28;20219;-67
2023/04/03 12:27:26;;;;;;;2.60;2.50;;;;;;;;;;4975354;28;20203;-66
2023/04/03 12:29:55;;;;;;;2.40;2.28;;;;;;;;;;4975270;28;20215;-67
2023/04/03 12:32:27;;;;;;;3.58;1.63;;;;;;;;;;4975212;28;20250;-67
2023/04/03 12:34:59;;;;;;;2.55;2.35;;;;;;;;;;4975182;28;20192;-67
2023/04/03 12:37:38;;;;;;;2.38;2.20;;;;;;;;;;4975304;28;20203;-67
2023/04/03 12:40:10;;;;;;;2.00;1.90;;;;;;;;;;4975085;28;20184;-67
2023/04/03 12:42:44;;;;;;;1.88;1.77;;;;;;;;;;4975007;28;20230;-66
2023/04/03 12:45:16;;;;;;;2.15;2.05;;;;;;;;;;4974975;28;20246;-66
2023/04/03 12:47:44;;;;;;;2.10;2.00;;;;;;;;;;4974968;28;20207;-66
2023/04/03 12:50:21;;;;;;;2.55;2.38;;;;;;;;;;4974823;28;20214;-66
2023/04/03 12:52:51;;;;;;;2.38;2.00;;;;;;;;;;4974932;28;20254;-66
2023/04/03 12:55:20;;;;;;;2.33;2.22;;;;;;;;;;4974849;28;20207;-66
2023/04/03 12:57:47;;;;;;;3.67;2.10;;;;;;;;;;4974467;28;20601;-66
2023/04/03 13:00:20;;;;;;;3.60;1.90;;;;;;;;;;4974462;28;20670;-66
2023/04/03 13:02:49;;;;;;;2.25;2.10;;;;;;;;;;4974650;28;20223;-66
2023/04/03 13:05:17;;;;;;;3.65;2.20;;;;;;;;;;4974747;28;20258;-66
2023/04/03 13:07:50;;;;;;;2.10;2.00;;;;;;;;;;4974719;28;20214;-66
2023/04/03 13:10:18;;;;;;;2.50;2.30;;;;;;;;;;4974842;28;20195;-66
2023/04/03 13:12:49;;;;;;;2.40;2.20;;;;;;;;;;4974345;28;20741;-66
2023/04/03 13:15:18;;;;;;;2.20;2.00;;;;;;;;;;4974372;28;20670;-66
2023/04/03 13:17:45;;;;;;;2.35;2.15;;;;;;;;;;4974624;28;20254;-66
2023/04/03 13:20:15;;;;;;;2.28;2.17;;;;;;;;;;4975830;28;20520;-66
2023/04/03 13:22:46;;;;;;;2.25;2.10;;;;;;;;;;4978354;28;20270;-67
2023/04/03 13:25:16;;;;;;;2.47;2.38;;;;;;;;;;4979211;28;20194;-66
2023/04/03 13:27:44;;;;;;;2.28;2.05;;;;;;;;;;4978596;28;20615;-66
2023/04/03 13:30:21;;;;;;;1.80;1.70;;;;;;;;;;4978621;28;20223;-66
2023/04/03 13:32:48;;;;;;;2.20;2.10;;;;;;;;;;4978250;28;20785;-66
2023/04/03 13:35:31;;;;;;;3.60;3.03;;;;;;;;;;4978459;28;20571;-66
2023/04/03 13:37:59;;;;;;;2.33;2.22;;;;;;;;;;4978432;28;20222;-67
2023/04/03 13:40:26;;;;;;;2.30;2.20;;;;;;;;;;4978362;28;20238;-66
2023/04/03 13:43:00;;;;;;;3.83;2.95;;;;;;;;;;4978343;28;20223;-66
2023/04/03 13:45:28;;;;;;;2.85;2.65;;;;;;;;;;4978374;28;20187;-66
2023/04/03 13:48:08;;;;;;;2.72;2.53;;;;;;;;;;4978301;28;20207;-66
2023/04/03 13:50:51;;;;;;;3.42;3.22;;;;;;;;;;4978003;28;20667;-66
2023/04/03 13:53:18;;;;;;;4.55;4.15;;;;;;;;;;4978964;28;20359;-66
2023/04/03 13:55:55;;;;;;;3.28;3.05;;;;;;;;;;4978784;28;20214;-66
2023/04/03 13:58:24;;;;;;;2.50;2.38;;;;;;;;;;4978185;28;20207;-66
2023/04/03 14:00:52;;;;;;;3.40;2.97;;;;;;;;;;4978207;28;20203;-66
2023/04/03 14:03:22;;;;;;;3.20;2.58;;;;;;;;;;4978130;28;20219;-66
2023/04/03 14:05:51;;;;;;;4.20;2.70;;;;;;;;;;4978026;28;20258;-66
2023/04/03 14:08:18;;;;;;;2.20;2.00;;;;;;;;;;4977609;28;20618;-66
2023/04/03 14:10:45;;;;;;;2.55;2.30;;;;;;;;;;4977622;28;20690;-66
2023/04/03 14:13:13;;;;;;;2.25;2.15;;;;;;;;;;4977457;28;20232;-66
2023/04/03 14:15:41;;;;;;;3.80;2.67;;;;;;;;;;4977804;28;20250;-66
2023/04/03 14:18:08;;;;;;;2.50;2.33;;;;;;;;;;4977897;28;20235;-66
2023/04/03 14:20:35;;;;;;;2.95;2.25;;;;;;;;;;4977847;28;20199;-66
2023/04/03 14:23:03;;;;;;;2.08;1.98;;;;;;;;;;4977831;28;20223;-66
2023/04/03 14:25:31;;;;;;;2.17;2.08;;;;;;;;;;4977285;28;20208;-66
2023/04/03 14:27:59;;;;;;;3.45;2.10;;;;;;;;;;4977317;28;20210;-66
2023/04/03 14:30:28;;;;;;;2.05;1.95;;;;;;;;;;4977620;28;20199;-66
2023/04/03 14:32:55;;;;;;;3.72;2.47;;;;;;;;;;4976701;28;20282;-66
2023/04/03 14:35:22;;;;;;;3.30;3.00;;;;;;;;;;4977058;28;20663;-66
2023/04/03 14:37:50;;;;;;;5.40;2.90;;;;;;;;;;4977053;28;20670;-66
2023/04/03 14:40:20;;;;;;;5.03;2.78;;;;;;;;;;4977299;28;20224;-66
2023/04/03 14:42:48;;;;;;;3.20;2.90;;;2.30;99.90;;;;;;4977288;28;20223;-66
2023/04/03 14:45:16;;;;;;;3.50;2.95;;;4.00;98.30;;;;;;4976994;28;20698;-66
2023/04/03 14:47:46;;;;;;;3.40;2.58;;;4.10;96.00;;;;;;4976989;28;20655;-66
2023/04/03 14:50:16;;;;;;;2.20;2.10;;;4.10;95.80;;;;;;4977201;28;20188;-66
2023/04/03 14:52:45;;;;;;;2.17;1.92;;;4.20;91.30;;;;;;4977021;28;20219;-66
2023/04/03 14:55:15;;;;;;;2.00;1.95;;;4.10;93.10;;;;;;4977025;28;20290;-66
2023/04/03 14:57:44;;;;;;;2.58;2.47;;;4.10;92.70;;;;;;4977071;28;20574;-66
2023/04/03 15:00:14;;;;;;;2.75;2.38;;;4.20;94.00;;;;;;4977007;28;20302;-66
2023/04/03 15:02:41;;;;;;;1.90;1.80;;;4.20;87.70;;;;;;4977559;28;20562;-66
2023/04/03 15:05:10;;;;;;;2.63;2.35;;;4.20;87.80;;;;;;4976942;28;20203;-66
2023/04/03 15:07:39;;;;;;;2.38;2.28;;;4.10;88.10;;;;;;4976867;28;20204;-66
2023/04/03 15:10:17;;;;;;;2.00;1.90;;;4.00;91.30;;;;;;4976899;28;20195;-66
2023/04/03 15:12:46;;;;;;;2.35;2.17;;;4.10;91.00;;;;;;4976548;28;20231;-66
2023/04/03 15:15:13;;;;;;;2.20;2.10;;;4.10;90.70;;;;;;4976893;28;20207;-66
2023/04/03 15:17:40;;;;;;;2.08;1.98;;;4.10;88.80;;;;;;4976875;28;20204;-66
2023/04/03 15:20:14;;;;;;;3.50;1.95;;;4.00;86.70;;;;;;4979432;28;20230;-66
2023/04/03 15:22:41;;;;;;;1.73;1.67;;;3.90;90.30;;;;;;4981167;28;20235;-66
2023/04/03 15:25:09;;;;;;;2.03;1.90;;;3.80;91.40;;;;;;4981655;28;20286;-66
2023/04/03 15:27:36;;;;;;;4.50;3.17;;;3.80;92.30;;;;;;4980429;28;20214;-66
2023/04/03 15:30:05;;;;;;;2.75;2.50;;;3.70;95.70;;;;;;4978849;28;20196;-66
2023/04/03 15:32:33;;;;;;;2.60;2.50;;;3.70;95.50;;;;;;4975916;28;20733;-66
2023/04/03 15:35:00;;;;;;;9.38;4.78;;;3.80;97.60;;;;;;4976289;28;20230;-66
2023/04/03 15:37:27;;;;;;;12.13;5.65;;;3.80;95.40;;;;;;4976052;28;20549;-66
2023/04/03 15:39:53;;;;;;;9.18;4.15;;;3.80;94.00;;;;;;4976306;28;20234;-67
2023/04/03 15:42:20;;;;;;;10.77;5.47;;;3.90;92.60;;;;;;4976340;28;20285;-66
2023/04/03 15:44:47;;;;;;;19.02;7.93;;;3.90;93.50;;;;;;4975601;28;20570;-66
2023/04/03 15:47:15;;;;;;;6.72;4.25;;;3.90;92.10;;;;;;4976266;28;20207;-66
2023/04/03 15:49:42;;;;;;;4.05;3.65;;;4.00;88.40;;;;;;4976058;28;20659;-66
2023/04/03 15:52:09;;;;;;;7.70;3.85;;;4.00;89.10;;;;;;4976706;28;20246;-67
2023/04/03 15:54:35;;;;;;;8.32;5.05;;;4.10;91.20;;;;;;4975877;28;20250;-66
2023/04/03 15:57:02;;;;;;;8.75;5.00;;;4.10;90.00;;;;;;4975899;28;20208;-66
2023/04/03 15:59:31;;;;;;;3.92;3.10;;;4.10;90.30;;;;;;4975443;28;20707;-67
2023/04/03 16:02:00;;;;;;;6.78;4.32;;;3.90;92.30;;;;;;4975498;28;20611;-66
2023/04/03 16:04:29;;;;;;;2.15;2.05;;;3.80;94.90;;;;;;4975984;28;20274;-66
2023/04/03 16:06:56;;;;;;;6.35;3.40;;;3.70;96.20;;;;;;4975933;28;20203;-66
2023/04/03 16:09:23;;;;;;;7.88;5.53;;;3.70;98.50;;;;;;4975737;28;20199;-66
2023/04/03 16:11:50;;;;;;;9.38;6.10;;;3.80;99.90;;;;;;4975219;28;20199;-67
2023/04/03 16:14:17;;;;;;;13.27;7.13;;;3.80;99.80;;;;;;4975717;28;20230;-66
2023/04/03 16:16:43;;;;;;;3.97;3.58;;;3.80;99.20;;;;;;4975566;28;20207;-67
2023/04/03 16:19:10;;;;;;;5.30;4.45;;;3.80;97.60;;;;;;4975575;28;20223;-66
2023/04/03 16:21:39;;;;;;;5.53;3.92;;;3.80;99.80;;;;;;4975292;28;20207;-66
2023/04/03 16:24:06;;;;;;;10.48;4.57;;;3.80;99.90;;;;;;4975432;28;20318;-67
2023/04/03 16:26:33;;;;;;;3.58;3.05;;;3.70;98.50;;;;;;4975381;28;20196;-67
2023/04/03 16:29:00;;;;;;;3.58;3.28;;;3.70;98.60;;;;;;4975344;28;20203;-67
2023/04/03 16:31:28;;;;;;;3.10;2.72;;;3.60;99.90;;;;;;4975037;28;20195;-66
2023/04/03 16:33:55;;;;;;;10.45;5.05;;;3.60;98.50;;;;;;4975253;28;20219;-66
2023/04/03 16:36:22;;;;;;;6.53;3.83;;;3.70;98.20;;;;;;4975240;28;20261;-66
2023/04/03 16:38:50;;;;;;;2.47;2.28;;;3.70;98.70;;;;;;4975161;28;20219;-67
2023/04/03 16:41:17;;;;;;;4.10;2.67;;;3.70;94.00;;;;;;4980076;28;20274;-67
2023/04/03 16:43:44;;;;;;;2.10;1.92;;;3.70;94.80;;;;;;4989784;28;20291;-69
2023/04/03 16:46:10;;;;;;;4.00;3.22;;;3.70;95.40;;;;;;4991002;28;20199;-69
2023/04/03 16:48:37;;;;;;;4.28;3.75;;;3.70;92.90;;;;;;4990939;28;20199;-70
2023/04/03 16:51:04;;;;;;;3.15;2.50;;;3.70;92.10;;;;;;4976706;28;20187;-69
2023/04/03 16:53:31;;;;;;;2.50;2.30;;;3.60;92.20;;;;;;4976151;28;20223;-70
2023/04/03 16:55:59;;;;;;;2.17;2.08;;;3.60;92.80;;;;;;4974867;28;20294;-69
2023/04/03 16:58:26;;;;;;;2.47;2.10;;;3.60;91.70;;;;;;4975153;28;20199;-65
2023/04/03 17:00:54;;;;;;;2.60;2.40;;;3.50;91.20;;;;;;4974604;28;20247;-65
2023/04/03 17:03:22;;;;;;;3.40;2.92;;;3.50;91.40;;;;;;4974905;28;20255;-65
2023/04/03 17:05:49;;;;;;;2.17;2.05;;;3.40;91.60;;;;;;4975222;28;20207;-65
2023/04/03 17:08:18;;;;;;;2.30;2.20;;;3.30;92.60;;;;;;4975128;28;20211;-68
2023/04/03 17:10:45;;;;;;;1.90;1.80;;;3.30;93.00;;;;;;4974916;28;20202;-68
2023/04/03 17:13:13;;;;;;;2.92;1.85;;;3.30;94.20;;;;;;4974499;28;20609;-67
2023/04/03 17:15:40;;;;;;;5.25;2.38;;;3.30;95.50;;;;;;4974812;28;20233;-67
2023/04/03 17:18:07;;;;;;;4.35;3.58;;;3.30;95.10;;;;;;4974443;28;20622;-68
2023/04/03 17:20:35;;;;;;;8.38;3.97;;;3.30;94.50;;;;;;4974769;28;20223;-67
2023/04/03 17:23:02;;;;;;;4.72;2.75;;;3.30;92.80;;;;;;4974627;28;20277;-67
2023/04/03 17:25:29;;;;;;;4.40;2.80;;;3.30;90.60;;;;;;4974649;28;20207;-67
2023/04/03 17:27:56;;;;;;;4.28;3.42;;;3.20;90.80;;;;;;4974674;28;20203;-67
2023/04/03 17:30:24;;;;;;;3.33;3.03;;;3.20;92.20;;;;;;4974550;28;20195;-68
2023/04/03 17:32:50;;;;;;;4.28;3.80;;;3.20;91.50;;;;;;4974546;28;20227;-67
2023/04/03 17:35:17;;;;;;;4.53;3.20;;;3.20;92.50;;;;;;4974671;28;20210;-67
2023/04/03 17:37:44;;;;;;;5.45;2.92;;;3.20;96.50;;;;;;4974601;28;20215;-67
2023/04/03 17:40:13;;;;;;;2.35;2.05;;;3.20;99.90;;;;;;4974437;28;20227;-67
2023/04/03 17:42:40;;;;;;;3.35;3.05;;;3.20;99.90;;;;;;4974703;28;20223;-68
2023/04/03 17:45:08;;;;;;;4.10;3.35;;;3.20;99.90;;;;;;4974680;28;20290;-67
2023/04/03 17:47:36;;;;;;;3.85;2.80;;;3.20;99.90;;;;;;4974684;28;20282;-68
2023/04/03 17:50:04;;;;;;;2.25;2.10;;;3.10;99.90;;;;;;4974482;28;20203;-67
2023/04/03 17:52:30;;;;;;;2.58;2.40;;;3.10;99.90;;;;;;4974604;28;20278;-67
2023/04/03 17:54:57;;;;;;;2.47;2.28;;;3.00;99.90;;;;;;4974054;28;20604;-67
2023/04/03 17:57:24;;;;;;;3.20;2.90;;;3.00;99.90;;;;;;4974368;28;20207;-68
2023/04/03 17:59:52;;;;;;;3.63;2.88;;;2.90;99.90;;;;;;4973906;28;20717;-66
2023/04/03 18:02:19;;;;;;;3.33;3.03;;;2.90;99.90;;;;;;4974265;28;20231;-67
2023/04/03 18:04:47;;;;;;;2.72;2.53;;;2.80;99.90;;;;;;4974226;28;20232;-67
2023/04/03 18:07:14;;;;;;;2.58;2.38;;;2.80;99.90;;;;;;4975752;28;20263;-68
2023/04/03 18:09:41;;;;;;;2.55;2.35;;;2.80;99.90;;;;;;4977785;28;20206;-67
2023/04/03 18:12:09;;;;;;;2.70;2.50;;;2.80;99.90;;;;;;4977538;28;20235;-67
2023/04/03 18:14:38;;;;;;;3.03;2.83;;;2.70;99.90;;;;;;4977761;28;20210;-67
2023/04/03 18:17:05;;;;;;;3.65;2.95;;;2.70;99.90;;;;;;4977695;28;20210;-67
2023/04/03 18:19:32;;;;;;;3.25;3.05;;;2.70;99.90;;;;;;4977589;28;20203;-68
2023/04/03 18:22:02;;;;;;;3.00;2.80;;;2.70;99.90;;;;;;4977202;28;20217;-67
2023/04/03 18:24:31;;;;;;;2.97;2.60;;;2.60;99.90;;;;;;4977457;28;20191;-68
2023/04/03 18:27:00;;;;;;;2.63;2.17;;;2.60;99.90;;;;;;4977393;28;20211;-67
2023/04/03 18:29:29;;;;;;;2.63;2.45;;;2.60;99.90;;;;;;4977439;28;20204;-68
2023/04/03 18:31:56;;;;;;;3.25;2.15;;;2.60;99.90;;;;;;4977312;28;20199;-68
2023/04/03 18:34:23;;;;;;;3.20;2.10;;;2.60;99.90;;;;;;4977332;28;20291;-68
2023/04/03 18:36:51;;;;;;;3.28;2.35;;;2.50;99.90;;;;;;4977279;28;20214;-69
2023/04/03 18:39:19;;;;;;;3.13;2.72;;;2.50;99.90;;;;;;4977220;28;20230;-68
2023/04/03 18:41:46;;;;;;;2.63;2.42;;;2.40;99.90;;;;;;4976898;28;20694;-67
2023/04/03 18:44:17;;;;;;;2.58;2.38;;;2.40;99.90;;;;;;4977142;28;20548;-68
2023/04/03 18:46:44;;;;;;;3.08;2.45;;;2.30;99.90;;;;;;4977237;28;20183;-69
2023/04/03 18:49:13;;;;;;;4.95;3.00;;;2.30;99.90;;;;;;4977131;28;20223;-68
2023/04/03 18:51:40;;;;;;;3.50;2.97;;;2.20;99.90;;;;;;4999906;23;20351;-66
2023/04/03 18:54:08;;;;;;;4.07;3.55;;;2.20;99.90;;;;;;4977284;28;20203;-66
2023/04/03 18:56:36;;;;;;;6.57;3.30;;;2.20;99.90;;;;;;4977349;28;20207;-66
2023/04/03 18:59:03;;;;;;;2.75;2.55;;;2.10;99.90;;;;;;4977123;28;20706;-66
2023/04/03 19:01:30;;;;;;;3.40;2.70;;;2.10;99.90;;;;;;4976698;28;20227;-65
2023/04/03 19:03:57;;;;;;;4.75;3.28;;;2.10;99.90;;;;;;4976825;28;20694;-66
2023/04/03 19:06:23;;;;;;;3.33;2.60;;;2.10;99.90;;;;;;4977123;28;20203;-65
2023/04/03 19:08:51;;;;;;;2.38;2.28;;;2.10;99.90;;;;;;4977146;28;20211;-66
2023/04/03 19:11:18;;;;;;;2.03;1.90;;;2.00;99.90;;;;;;4976652;28;20725;-65
2023/04/03 19:13:46;;;;;;;4.78;2.33;;;2.00;99.90;;;;;;4977018;28;20576;-65
2023/04/03 19:16:13;;;;;;;4.80;2.40;;;1.90;99.90;;;;;;4977080;28;20670;-66